sensor_id;sensor_type;location;lat;lon;timestamp;temperature;humidity
47861;HTU21D;33620;52.340;5.984;2022-08-19T00:00:38;20.18;78.30
47861;HTU21D;33620;52.340;5.984;2022-08-19T00:03:04;20.17;78.53
47861;HTU21D;33620;52.340;5.984;2022-08-19T00:05:30;20.12;78.58
47861;HTU21D;33620;52.340;5.984;2022-08-19T00:07:56;20.02;78.71
47861;HTU21D;33620;52.340;5.984;2022-08-19T00:10:22;19.98;78.80
47861;HTU21D;33620;52.340;5.984;2022-08-19T00:12:49;19.94;78.85
47861;HTU21D;33620;52.340;5.984;2022-08-19T00:15:16;19.89;78.87
47861;HTU21D;33620;52.340;5.984;2022-08-19T00:17:43;19.82;79.05
47861;HTU21D;33620;52.340;5.984;2022-08-19T00:20:13;19.77;79.27
47861;HTU21D;33620;52.340;5.984;2022-08-19T00:22:39;19.76;79.43
47861;HTU21D;33620;52.340;5.984;2022-08-19T00:25:06;19.75;79.46
47861;HTU21D;33620;52.340;5.984;2022-08-19T00:27:32;19.73;79.59
47861;HTU21D;33620;52.340;5.984;2022-08-19T00:29:58;19.73;79.47
47861;HTU21D;33620;52.340;5.984;2022-08-19T00:32:24;19.70;79.31
47861;HTU21D;33620;52.340;5.984;2022-08-19T00:34:51;19.66;79.27
47861;HTU21D;33620;52.340;5.984;2022-08-19T00:37:22;19.62;79.44
47861;HTU21D;33620;52.340;5.984;2022-08-19T00:39:49;19.60;79.37
47861;HTU21D;33620;52.340;5.984;2022-08-19T00:42:16;19.59;79.47
47861;HTU21D;33620;52.340;5.984;2022-08-19T00:44:42;19.58;79.70
47861;HTU21D;33620;52.340;5.984;2022-08-19T00:47:08;19.55;79.46
47861;HTU21D;33620;52.340;5.984;2022-08-19T00:52:19;19.44;79.59
47861;HTU21D;33620;52.340;5.984;2022-08-19T00:54:46;19.41;79.62
47861;HTU21D;33620;52.340;5.984;2022-08-19T00:57:15;19.38;79.55
47861;HTU21D;33620;52.340;5.984;2022-08-19T00:59:45;19.33;79.64
47861;HTU21D;33620;52.340;5.984;2022-08-19T01:02:11;19.30;79.73
47861;HTU21D;33620;52.340;5.984;2022-08-19T01:04:37;19.27;79.94
47861;HTU21D;33620;52.340;5.984;2022-08-19T01:07:03;19.23;80.05
47861;HTU21D;33620;52.340;5.984;2022-08-19T01:09:29;19.18;80.08
47861;HTU21D;33620;52.340;5.984;2022-08-19T01:11:56;19.13;80.08
47861;HTU21D;33620;52.340;5.984;2022-08-19T01:14:21;19.09;80.42
47861;HTU21D;33620;52.340;5.984;2022-08-19T01:16:47;19.08;80.42
47861;HTU21D;33620;52.340;5.984;2022-08-19T01:19:23;19.12;80.45
47861;HTU21D;33620;52.340;5.984;2022-08-19T01:21:58;19.12;80.06
47861;HTU21D;33620;52.340;5.984;2022-08-19T01:24:26;19.11;79.98
47861;HTU21D;33620;52.340;5.984;2022-08-19T01:26:51;19.10;80.18
47861;HTU21D;33620;52.340;5.984;2022-08-19T01:29:17;19.09;80.04
47861;HTU21D;33620;52.340;5.984;2022-08-19T01:31:42;19.05;80.03
47861;HTU21D;33620;52.340;5.984;2022-08-19T01:34:08;19.03;79.87
47861;HTU21D;33620;52.340;5.984;2022-08-19T01:36:44;19.02;79.85
47861;HTU21D;33620;52.340;5.984;2022-08-19T01:39:12;18.98;79.88
47861;HTU21D;33620;52.340;5.984;2022-08-19T01:41:38;18.96;79.88
47861;HTU21D;33620;52.340;5.984;2022-08-19T01:44:05;18.92;79.95
47861;HTU21D;33620;52.340;5.984;2022-08-19T01:46:32;18.91;79.95
47861;HTU21D;33620;52.340;5.984;2022-08-19T01:48:58;18.89;80.06
47861;HTU21D;33620;52.340;5.984;2022-08-19T01:51:24;18.87;80.11
47861;HTU21D;33620;52.340;5.984;2022-08-19T01:53:50;18.87;79.95
47861;HTU21D;33620;52.340;5.984;2022-08-19T01:56:17;18.84;79.82
47861;HTU21D;33620;52.340;5.984;2022-08-19T01:58:46;18.83;79.85
47861;HTU21D;33620;52.340;5.984;2022-08-19T02:01:16;18.82;79.97
47861;HTU21D;33620;52.340;5.984;2022-08-19T02:03:42;18.83;80.00
47861;HTU21D;33620;52.340;5.984;2022-08-19T02:06:08;18.80;79.67
47861;HTU21D;33620;52.340;5.984;2022-08-19T02:08:36;18.78;79.77
47861;HTU21D;33620;52.340;5.984;2022-08-19T02:11:02;18.73;79.85
47861;HTU21D;33620;52.340;5.984;2022-08-19T02:13:28;18.70;79.98
47861;HTU21D;33620;52.340;5.984;2022-08-19T02:15:53;18.69;80.01
47861;HTU21D;33620;52.340;5.984;2022-08-19T02:18:19;18.67;79.88
47861;HTU21D;33620;52.340;5.984;2022-08-19T02:20:44;18.62;79.85
47861;HTU21D;33620;52.340;5.984;2022-08-19T02:23:12;18.58;79.85
47861;HTU21D;33620;52.340;5.984;2022-08-19T02:25:38;18.59;80.07
47861;HTU21D;33620;52.340;5.984;2022-08-19T02:28:04;18.59;80.28
47861;HTU21D;33620;52.340;5.984;2022-08-19T02:30:30;18.56;79.98
47861;HTU21D;33620;52.340;5.984;2022-08-19T02:32:55;18.57;80.20
47861;HTU21D;33620;52.340;5.984;2022-08-19T02:35:21;18.55;80.27
47861;HTU21D;33620;52.340;5.984;2022-08-19T02:37:47;18.52;80.15
47861;HTU21D;33620;52.340;5.984;2022-08-19T02:40:31;18.49;80.05
47861;HTU21D;33620;52.340;5.984;2022-08-19T02:43:02;18.41;80.11
47861;HTU21D;33620;52.340;5.984;2022-08-19T02:45:32;18.36;80.30
47861;HTU21D;33620;52.340;5.984;2022-08-19T02:47:58;18.33;80.30
47861;HTU21D;33620;52.340;5.984;2022-08-19T02:50:23;18.32;80.27
47861;HTU21D;33620;52.340;5.984;2022-08-19T02:52:49;18.29;79.97
47861;HTU21D;33620;52.340;5.984;2022-08-19T02:55:14;18.25;79.94
47861;HTU21D;33620;52.340;5.984;2022-08-19T02:57:40;18.21;79.83
47861;HTU21D;33620;52.340;5.984;2022-08-19T03:00:07;18.14;80.03
47861;HTU21D;33620;52.340;5.984;2022-08-19T03:02:33;18.13;80.11
47861;HTU21D;33620;52.340;5.984;2022-08-19T03:04:59;18.14;80.13
47861;HTU21D;33620;52.340;5.984;2022-08-19T03:07:24;18.15;80.24
47861;HTU21D;33620;52.340;5.984;2022-08-19T03:09:49;18.17;80.20
47861;HTU21D;33620;52.340;5.984;2022-08-19T03:12:15;18.19;80.20
47861;HTU21D;33620;52.340;5.984;2022-08-19T03:14:40;18.19;80.11
47861;HTU21D;33620;52.340;5.984;2022-08-19T03:17:07;18.22;80.04
47861;HTU21D;33620;52.340;5.984;2022-08-19T03:19:33;18.23;79.97
47861;HTU21D;33620;52.340;5.984;2022-08-19T03:21:58;18.23;80.01
47861;HTU21D;33620;52.340;5.984;2022-08-19T03:24:24;18.19;80.02
47861;HTU21D;33620;52.340;5.984;2022-08-19T03:26:54;18.17;80.01
47861;HTU21D;33620;52.340;5.984;2022-08-19T03:29:27;18.17;80.09
47861;HTU21D;33620;52.340;5.984;2022-08-19T03:31:53;18.15;79.95
47861;HTU21D;33620;52.340;5.984;2022-08-19T03:34:23;18.11;79.96
47861;HTU21D;33620;52.340;5.984;2022-08-19T03:36:53;18.06;79.95
47861;HTU21D;33620;52.340;5.984;2022-08-19T03:39:19;18.06;79.94
47861;HTU21D;33620;52.340;5.984;2022-08-19T03:41:46;18.05;80.04
47861;HTU21D;33620;52.340;5.984;2022-08-19T03:44:21;17.99;79.94
47861;HTU21D;33620;52.340;5.984;2022-08-19T03:46:53;17.92;79.93
47861;HTU21D;33620;52.340;5.984;2022-08-19T03:49:21;17.82;80.07
47861;HTU21D;33620;52.340;5.984;2022-08-19T03:51:47;17.76;80.26
47861;HTU21D;33620;52.340;5.984;2022-08-19T03:54:15;17.76;80.30
47861;HTU21D;33620;52.340;5.984;2022-08-19T03:56:42;17.76;80.33
47861;HTU21D;33620;52.340;5.984;2022-08-19T03:59:11;17.74;80.37
47861;HTU21D;33620;52.340;5.984;2022-08-19T04:01:38;17.72;80.41
47861;HTU21D;33620;52.340;5.984;2022-08-19T04:04:04;17.72;80.62
47861;HTU21D;33620;52.340;5.984;2022-08-19T04:06:32;17.72;80.54
47861;HTU21D;33620;52.340;5.984;2022-08-19T04:09:00;17.73;80.56
47861;HTU21D;33620;52.340;5.984;2022-08-19T04:11:34;17.76;80.49
47861;HTU21D;33620;52.340;5.984;2022-08-19T04:13:59;17.77;80.45
47861;HTU21D;33620;52.340;5.984;2022-08-19T04:16:26;17.75;80.56
47861;HTU21D;33620;52.340;5.984;2022-08-19T04:18:56;17.73;80.55
47861;HTU21D;33620;52.340;5.984;2022-08-19T04:21:24;17.74;80.42
47861;HTU21D;33620;52.340;5.984;2022-08-19T04:23:50;17.72;80.30
47861;HTU21D;33620;52.340;5.984;2022-08-19T04:26:18;17.74;80.32
47861;HTU21D;33620;52.340;5.984;2022-08-19T04:28:45;17.72;80.20
47861;HTU21D;33620;52.340;5.984;2022-08-19T04:31:15;17.72;80.26
47861;HTU21D;33620;52.340;5.984;2022-08-19T04:33:41;17.73;80.28
47861;HTU21D;33620;52.340;5.984;2022-08-19T04:36:07;17.70;80.14
47861;HTU21D;33620;52.340;5.984;2022-08-19T04:38:33;17.67;80.17
47861;HTU21D;33620;52.340;5.984;2022-08-19T04:40:58;17.64;80.45
47861;HTU21D;33620;52.340;5.984;2022-08-19T04:43:44;17.63;80.53
47861;HTU21D;33620;52.340;5.984;2022-08-19T04:46:14;17.64;80.47
47861;HTU21D;33620;52.340;5.984;2022-08-19T04:48:40;17.61;80.47
47861;HTU21D;33620;52.340;5.984;2022-08-19T04:51:08;17.56;80.45
47861;HTU21D;33620;52.340;5.984;2022-08-19T04:53:36;17.55;80.51
47861;HTU21D;33620;52.340;5.984;2022-08-19T04:56:08;17.53;80.48
47861;HTU21D;33620;52.340;5.984;2022-08-19T04:58:34;17.50;80.47
47861;HTU21D;33620;52.340;5.984;2022-08-19T05:01:00;17.46;80.47
47861;HTU21D;33620;52.340;5.984;2022-08-19T05:03:26;17.44;80.47
47861;HTU21D;33620;52.340;5.984;2022-08-19T05:05:51;17.36;80.45
47861;HTU21D;33620;52.340;5.984;2022-08-19T05:08:19;17.36;80.62
47861;HTU21D;33620;52.340;5.984;2022-08-19T05:10:48;17.37;80.33
47861;HTU21D;33620;52.340;5.984;2022-08-19T05:13:14;17.35;80.36
47861;HTU21D;33620;52.340;5.984;2022-08-19T05:15:39;17.34;80.44
47861;HTU21D;33620;52.340;5.984;2022-08-19T05:18:05;17.36;80.52
47861;HTU21D;33620;52.340;5.984;2022-08-19T05:20:50;17.38;80.45
47861;HTU21D;33620;52.340;5.984;2022-08-19T05:23:34;17.43;80.40
47861;HTU21D;33620;52.340;5.984;2022-08-19T05:25:59;17.46;80.42
47861;HTU21D;33620;52.340;5.984;2022-08-19T05:28:25;17.48;80.55
47861;HTU21D;33620;52.340;5.984;2022-08-19T05:30:50;17.48;80.59
47861;HTU21D;33620;52.340;5.984;2022-08-19T05:33:17;17.50;80.62
47861;HTU21D;33620;52.340;5.984;2022-08-19T05:35:42;17.48;80.69
47861;HTU21D;33620;52.340;5.984;2022-08-19T05:38:10;17.48;80.99
47861;HTU21D;33620;52.340;5.984;2022-08-19T05:40:37;17.51;81.18
47861;HTU21D;33620;52.340;5.984;2022-08-19T05:43:04;17.53;81.30
47861;HTU21D;33620;52.340;5.984;2022-08-19T05:45:30;17.58;81.41
47861;HTU21D;33620;52.340;5.984;2022-08-19T05:47:56;17.63;81.75
47861;HTU21D;33620;52.340;5.984;2022-08-19T05:50:21;17.66;81.68
47861;HTU21D;33620;52.340;5.984;2022-08-19T05:52:47;17.72;81.75
47861;HTU21D;33620;52.340;5.984;2022-08-19T05:55:13;17.76;81.84
47861;HTU21D;33620;52.340;5.984;2022-08-19T05:57:39;17.79;81.80
47861;HTU21D;33620;52.340;5.984;2022-08-19T06:00:05;17.79;81.92
47861;HTU21D;33620;52.340;5.984;2022-08-19T06:02:34;17.80;82.19
47861;HTU21D;33620;52.340;5.984;2022-08-19T06:05:01;17.81;82.33
47861;HTU21D;33620;52.340;5.984;2022-08-19T06:07:27;17.83;82.66
47861;HTU21D;33620;52.340;5.984;2022-08-19T06:09:54;17.88;82.84
47861;HTU21D;33620;52.340;5.984;2022-08-19T06:12:19;17.90;83.04
47861;HTU21D;33620;52.340;5.984;2022-08-19T06:14:45;17.94;83.15
47861;HTU21D;33620;52.340;5.984;2022-08-19T06:17:10;17.97;83.34
47861;HTU21D;33620;52.340;5.984;2022-08-19T06:19:37;18.02;83.55
47861;HTU21D;33620;52.340;5.984;2022-08-19T06:22:03;18.07;83.57
47861;HTU21D;33620;52.340;5.984;2022-08-19T06:24:29;18.13;83.58
47861;HTU21D;33620;52.340;5.984;2022-08-19T06:26:56;18.18;83.86
47861;HTU21D;33620;52.340;5.984;2022-08-19T06:29:23;18.23;83.97
47861;HTU21D;33620;52.340;5.984;2022-08-19T06:31:52;18.28;84.09
47861;HTU21D;33620;52.340;5.984;2022-08-19T06:34:18;18.38;84.03
47861;HTU21D;33620;52.340;5.984;2022-08-19T06:36:47;18.42;83.97
47861;HTU21D;33620;52.340;5.984;2022-08-19T06:39:18;18.48;83.66
47861;HTU21D;33620;52.340;5.984;2022-08-19T06:41:47;18.52;84.10
47861;HTU21D;33620;52.340;5.984;2022-08-19T06:44:16;18.57;84.22
47861;HTU21D;33620;52.340;5.984;2022-08-19T06:46:42;18.62;84.37
47861;HTU21D;33620;52.340;5.984;2022-08-19T06:49:08;18.70;84.81
47861;HTU21D;33620;52.340;5.984;2022-08-19T06:51:40;18.77;85.58
47861;HTU21D;33620;52.340;5.984;2022-08-19T06:54:06;18.84;85.85
47861;HTU21D;33620;52.340;5.984;2022-08-19T06:56:33;18.94;85.97
47861;HTU21D;33620;52.340;5.984;2022-08-19T06:59:04;19.00;85.86
47861;HTU21D;33620;52.340;5.984;2022-08-19T07:01:33;19.10;85.97
47861;HTU21D;33620;52.340;5.984;2022-08-19T07:03:59;19.17;86.34
47861;HTU21D;33620;52.340;5.984;2022-08-19T07:06:26;19.25;86.41
47861;HTU21D;33620;52.340;5.984;2022-08-19T07:08:52;19.33;86.77
47861;HTU21D;33620;52.340;5.984;2022-08-19T07:11:18;19.40;86.93
47861;HTU21D;33620;52.340;5.984;2022-08-19T07:13:44;19.48;86.83
47861;HTU21D;33620;52.340;5.984;2022-08-19T07:16:14;19.55;86.92
47861;HTU21D;33620;52.340;5.984;2022-08-19T07:18:40;19.61;86.52
47861;HTU21D;33620;52.340;5.984;2022-08-19T07:21:09;19.69;86.45
47861;HTU21D;33620;52.340;5.984;2022-08-19T07:23:34;19.72;86.16
47861;HTU21D;33620;52.340;5.984;2022-08-19T07:26:49;19.79;85.78
47861;HTU21D;33620;52.340;5.984;2022-08-19T07:28:56;19.85;85.30
47861;HTU21D;33620;52.340;5.984;2022-08-19T07:31:24;19.87;85.03
47861;HTU21D;33620;52.340;5.984;2022-08-19T07:33:51;19.92;85.23
47861;HTU21D;33620;52.340;5.984;2022-08-19T07:36:20;19.96;84.98
47861;HTU21D;33620;52.340;5.984;2022-08-19T07:38:49;20.03;85.07
47861;HTU21D;33620;52.340;5.984;2022-08-19T07:41:21;20.07;84.74
47861;HTU21D;33620;52.340;5.984;2022-08-19T07:43:48;20.15;84.42
47861;HTU21D;33620;52.340;5.984;2022-08-19T07:46:14;20.18;84.18
47861;HTU21D;33620;52.340;5.984;2022-08-19T07:48:42;20.25;84.01
47861;HTU21D;33620;52.340;5.984;2022-08-19T07:51:09;20.29;83.61
47861;HTU21D;33620;52.340;5.984;2022-08-19T07:53:36;20.34;83.64
47861;HTU21D;33620;52.340;5.984;2022-08-19T07:56:02;20.39;82.53
47861;HTU21D;33620;52.340;5.984;2022-08-19T07:58:31;20.44;81.78
47861;HTU21D;33620;52.340;5.984;2022-08-19T08:00:57;20.50;81.28
47861;HTU21D;33620;52.340;5.984;2022-08-19T08:03:24;20.55;81.36
47861;HTU21D;33620;52.340;5.984;2022-08-19T08:06:10;20.63;81.55
47861;HTU21D;33620;52.340;5.984;2022-08-19T08:08:54;20.70;81.71
47861;HTU21D;33620;52.340;5.984;2022-08-19T08:11:47;20.74;81.68
47861;HTU21D;33620;52.340;5.984;2022-08-19T08:14:20;20.79;81.46
47861;HTU21D;33620;52.340;5.984;2022-08-19T08:16:47;20.81;80.76
47861;HTU21D;33620;52.340;5.984;2022-08-19T08:19:18;20.89;80.69
47861;HTU21D;33620;52.340;5.984;2022-08-19T08:21:44;20.95;80.11
47861;HTU21D;33620;52.340;5.984;2022-08-19T08:24:10;20.99;79.66
47861;HTU21D;33620;52.340;5.984;2022-08-19T08:26:35;21.06;79.46
47861;HTU21D;33620;52.340;5.984;2022-08-19T08:29:00;21.13;79.03
47861;HTU21D;33620;52.340;5.984;2022-08-19T08:31:26;21.22;79.33
47861;HTU21D;33620;52.340;5.984;2022-08-19T08:33:52;21.30;78.69
47861;HTU21D;33620;52.340;5.984;2022-08-19T08:36:17;21.37;78.48
47861;HTU21D;33620;52.340;5.984;2022-08-19T08:38:44;21.47;78.29
47861;HTU21D;33620;52.340;5.984;2022-08-19T08:41:37;21.58;78.13
47861;HTU21D;33620;52.340;5.984;2022-08-19T08:44:05;21.69;77.89
47861;HTU21D;33620;52.340;5.984;2022-08-19T08:46:38;21.77;76.97
47861;HTU21D;33620;52.340;5.984;2022-08-19T08:51:44;21.96;75.74
47861;HTU21D;33620;52.340;5.984;2022-08-19T08:54:13;22.04;72.70
47861;HTU21D;33620;52.340;5.984;2022-08-19T08:56:41;22.17;72.26
47861;HTU21D;33620;52.340;5.984;2022-08-19T08:59:16;22.25;71.45
47861;HTU21D;33620;52.340;5.984;2022-08-19T09:01:44;22.33;71.39
47861;HTU21D;33620;52.340;5.984;2022-08-19T09:04:12;22.46;72.30
47861;HTU21D;33620;52.340;5.984;2022-08-19T09:09:32;22.62;70.07
47861;HTU21D;33620;52.340;5.984;2022-08-19T09:12:33;22.70;68.30
47861;HTU21D;33620;52.340;5.984;2022-08-19T09:15:05;22.79;68.80
47861;HTU21D;33620;52.340;5.984;2022-08-19T09:17:32;22.84;69.13
47861;HTU21D;33620;52.340;5.984;2022-08-19T09:22:36;23.00;67.91
47861;HTU21D;33620;52.340;5.984;2022-08-19T09:25:03;23.08;67.75
47861;HTU21D;33620;52.340;5.984;2022-08-19T09:27:29;23.15;67.49
47861;HTU21D;33620;52.340;5.984;2022-08-19T09:29:55;23.24;67.84
47861;HTU21D;33620;52.340;5.984;2022-08-19T09:32:21;23.30;68.08
47861;HTU21D;33620;52.340;5.984;2022-08-19T09:34:47;23.37;67.71
47861;HTU21D;33620;52.340;5.984;2022-08-19T09:37:13;23.47;67.61
47861;HTU21D;33620;52.340;5.984;2022-08-19T09:39:39;23.59;68.17
47861;HTU21D;33620;52.340;5.984;2022-08-19T09:42:09;23.68;67.64
47861;HTU21D;33620;52.340;5.984;2022-08-19T09:44:40;23.70;65.21
47861;HTU21D;33620;52.340;5.984;2022-08-19T09:47:07;23.68;64.59
47861;HTU21D;33620;52.340;5.984;2022-08-19T09:49:33;23.72;64.98
47861;HTU21D;33620;52.340;5.984;2022-08-19T09:51:59;23.79;64.97
47861;HTU21D;33620;52.340;5.984;2022-08-19T09:54:25;23.81;63.44
47861;HTU21D;33620;52.340;5.984;2022-08-19T09:56:52;23.87;64.81
47861;HTU21D;33620;52.340;5.984;2022-08-19T09:59:17;23.94;65.06
47861;HTU21D;33620;52.340;5.984;2022-08-19T10:01:43;24.02;64.32
47861;HTU21D;33620;52.340;5.984;2022-08-19T10:04:08;24.10;63.65
47861;HTU21D;33620;52.340;5.984;2022-08-19T10:06:36;24.19;63.09
47861;HTU21D;33620;52.340;5.984;2022-08-19T10:09:03;24.16;62.30
47861;HTU21D;33620;52.340;5.984;2022-08-19T10:11:32;24.17;62.52
47861;HTU21D;33620;52.340;5.984;2022-08-19T10:13:58;24.26;60.86
47861;HTU21D;33620;52.340;5.984;2022-08-19T10:16:24;24.29;61.31
47861;HTU21D;33620;52.340;5.984;2022-08-19T10:18:51;24.39;60.91
47861;HTU21D;33620;52.340;5.984;2022-08-19T10:21:22;24.43;61.31
47861;HTU21D;33620;52.340;5.984;2022-08-19T10:23:51;24.48;60.98
47861;HTU21D;33620;52.340;5.984;2022-08-19T10:26:19;24.56;62.52
47861;HTU21D;33620;52.340;5.984;2022-08-19T10:28:45;24.62;61.71
47861;HTU21D;33620;52.340;5.984;2022-08-19T10:31:14;24.71;59.58
47861;HTU21D;33620;52.340;5.984;2022-08-19T10:33:41;24.68;59.11
47861;HTU21D;33620;52.340;5.984;2022-08-19T10:36:15;24.66;58.06
47861;HTU21D;33620;52.340;5.984;2022-08-19T10:38:42;24.68;58.95
47861;HTU21D;33620;52.340;5.984;2022-08-19T10:41:16;24.76;57.96
47861;HTU21D;33620;52.340;5.984;2022-08-19T10:43:42;24.84;57.02
47861;HTU21D;33620;52.340;5.984;2022-08-19T10:46:12;24.92;56.35
47861;HTU21D;33620;52.340;5.984;2022-08-19T10:48:38;25.03;56.61
47861;HTU21D;33620;52.340;5.984;2022-08-19T10:51:04;25.14;56.80
47861;HTU21D;33620;52.340;5.984;2022-08-19T10:53:49;25.27;58.03
47861;HTU21D;33620;52.340;5.984;2022-08-19T10:56:14;25.40;57.76
47861;HTU21D;33620;52.340;5.984;2022-08-19T10:58:59;25.56;57.93
47861;HTU21D;33620;52.340;5.984;2022-08-19T11:01:27;25.67;58.19
47861;HTU21D;33620;52.340;5.984;2022-08-19T11:03:55;25.64;58.14
47861;HTU21D;33620;52.340;5.984;2022-08-19T11:06:23;25.49;58.19
47861;HTU21D;33620;52.340;5.984;2022-08-19T11:08:50;25.33;58.61
47861;HTU21D;33620;52.340;5.984;2022-08-19T11:11:16;25.24;59.22
47861;HTU21D;33620;52.340;5.984;2022-08-19T11:13:42;25.27;58.69
47861;HTU21D;33620;52.340;5.984;2022-08-19T11:16:12;25.31;59.05
47861;HTU21D;33620;52.340;5.984;2022-08-19T11:18:43;25.38;58.55
47861;HTU21D;33620;52.340;5.984;2022-08-19T11:21:17;25.33;57.54
47861;HTU21D;33620;52.340;5.984;2022-08-19T11:23:45;25.17;57.87
47861;HTU21D;33620;52.340;5.984;2022-08-19T11:26:11;25.07;58.41
47861;HTU21D;33620;52.340;5.984;2022-08-19T11:28:36;25.03;58.81
47861;HTU21D;33620;52.340;5.984;2022-08-19T11:31:02;25.15;58.22
47861;HTU21D;33620;52.340;5.984;2022-08-19T11:33:29;25.21;57.58
47861;HTU21D;33620;52.340;5.984;2022-08-19T11:35:57;25.27;58.31
47861;HTU21D;33620;52.340;5.984;2022-08-19T11:38:24;25.42;60.25
47861;HTU21D;33620;52.340;5.984;2022-08-19T11:40:57;25.57;59.73
47861;HTU21D;33620;52.340;5.984;2022-08-19T11:43:23;25.61;59.71
47861;HTU21D;33620;52.340;5.984;2022-08-19T11:45:49;25.76;60.58
47861;HTU21D;33620;52.340;5.984;2022-08-19T11:48:15;25.77;57.77
47861;HTU21D;33620;52.340;5.984;2022-08-19T11:50:40;25.84;58.03
47861;HTU21D;33620;52.340;5.984;2022-08-19T11:53:08;25.74;57.71
47861;HTU21D;33620;52.340;5.984;2022-08-19T11:55:38;25.76;57.79
47861;HTU21D;33620;52.340;5.984;2022-08-19T11:58:04;25.89;58.22
47861;HTU21D;33620;52.340;5.984;2022-08-19T12:00:31;25.91;57.96
47861;HTU21D;33620;52.340;5.984;2022-08-19T12:02:57;25.99;58.22
47861;HTU21D;33620;52.340;5.984;2022-08-19T12:05:22;26.10;56.88
47861;HTU21D;33620;52.340;5.984;2022-08-19T12:07:47;26.17;56.97
47861;HTU21D;33620;52.340;5.984;2022-08-19T12:10:13;26.28;56.68
47861;HTU21D;33620;52.340;5.984;2022-08-19T12:12:39;26.37;55.47
47861;HTU21D;33620;52.340;5.984;2022-08-19T12:15:08;26.39;54.93
47861;HTU21D;33620;52.340;5.984;2022-08-19T12:17:36;26.42;54.22
47861;HTU21D;33620;52.340;5.984;2022-08-19T12:20:01;26.32;54.67
47861;HTU21D;33620;52.340;5.984;2022-08-19T12:22:27;26.42;54.54
47861;HTU21D;33620;52.340;5.984;2022-08-19T12:24:53;26.48;52.83
47861;HTU21D;33620;52.340;5.984;2022-08-19T12:27:20;26.54;53.60
47861;HTU21D;33620;52.340;5.984;2022-08-19T12:29:46;26.62;52.41
47861;HTU21D;33620;52.340;5.984;2022-08-19T12:32:11;26.62;53.36
47861;HTU21D;33620;52.340;5.984;2022-08-19T12:34:36;26.73;52.46
47861;HTU21D;33620;52.340;5.984;2022-08-19T12:37:04;26.77;51.49
47861;HTU21D;33620;52.340;5.984;2022-08-19T12:39:37;26.82;52.16
47861;HTU21D;33620;52.340;5.984;2022-08-19T12:42:04;26.83;52.07
47861;HTU21D;33620;52.340;5.984;2022-08-19T12:44:29;26.83;52.48
47861;HTU21D;33620;52.340;5.984;2022-08-19T12:46:57;26.93;52.46
47861;HTU21D;33620;52.340;5.984;2022-08-19T12:49:23;26.81;52.04
47861;HTU21D;33620;52.340;5.984;2022-08-19T12:51:50;26.79;51.72
47861;HTU21D;33620;52.340;5.984;2022-08-19T12:54:15;26.87;51.91
47861;HTU21D;33620;52.340;5.984;2022-08-19T12:56:40;26.94;52.08
47861;HTU21D;33620;52.340;5.984;2022-08-19T12:59:07;26.95;52.58
47861;HTU21D;33620;52.340;5.984;2022-08-19T13:01:34;26.92;53.60
47861;HTU21D;33620;52.340;5.984;2022-08-19T13:03:59;26.78;52.80
47861;HTU21D;33620;52.340;5.984;2022-08-19T13:06:25;26.56;54.24
47861;HTU21D;33620;52.340;5.984;2022-08-19T13:08:51;26.37;54.01
47861;HTU21D;33620;52.340;5.984;2022-08-19T13:11:18;26.35;55.69
47861;HTU21D;33620;52.340;5.984;2022-08-19T13:13:47;26.51;55.29
47861;HTU21D;33620;52.340;5.984;2022-08-19T13:16:14;26.55;55.04
47861;HTU21D;33620;52.340;5.984;2022-08-19T13:18:40;26.63;54.71
47861;HTU21D;33620;52.340;5.984;2022-08-19T13:21:09;26.77;54.30
47861;HTU21D;33620;52.340;5.984;2022-08-19T13:23:35;26.83;53.10
47861;HTU21D;33620;52.340;5.984;2022-08-19T13:26:04;26.77;53.52
47861;HTU21D;33620;52.340;5.984;2022-08-19T13:28:30;26.76;53.55
47861;HTU21D;33620;52.340;5.984;2022-08-19T13:31:18;26.84;53.66
47861;HTU21D;33620;52.340;5.984;2022-08-19T13:34:02;26.77;53.17
47861;HTU21D;33620;52.340;5.984;2022-08-19T13:36:27;26.67;53.78
47861;HTU21D;33620;52.340;5.984;2022-08-19T13:38:53;26.50;54.97
47861;HTU21D;33620;52.340;5.984;2022-08-19T13:41:19;26.47;55.20
47861;HTU21D;33620;52.340;5.984;2022-08-19T13:43:44;26.40;55.87
47861;HTU21D;33620;52.340;5.984;2022-08-19T13:46:10;26.28;56.60
47861;HTU21D;33620;52.340;5.984;2022-08-19T13:48:39;26.12;57.78
47861;HTU21D;33620;52.340;5.984;2022-08-19T13:51:06;25.76;60.54
47861;HTU21D;33620;52.340;5.984;2022-08-19T13:53:35;25.45;61.86
47861;HTU21D;33620;52.340;5.984;2022-08-19T13:56:05;25.19;63.18
47861;HTU21D;33620;52.340;5.984;2022-08-19T13:58:31;24.88;64.56
47861;HTU21D;33620;52.340;5.984;2022-08-19T14:00:57;24.73;65.25
47861;HTU21D;33620;52.340;5.984;2022-08-19T14:03:24;24.56;66.44
47861;HTU21D;33620;52.340;5.984;2022-08-19T14:05:50;24.49;67.75
47861;HTU21D;33620;52.340;5.984;2022-08-19T14:08:15;24.38;68.78
47861;HTU21D;33620;52.340;5.984;2022-08-19T14:10:41;24.30;69.86
47861;HTU21D;33620;52.340;5.984;2022-08-19T14:13:07;24.21;71.13
47861;HTU21D;33620;52.340;5.984;2022-08-19T14:15:33;24.04;72.33
47861;HTU21D;33620;52.340;5.984;2022-08-19T14:17:58;24.03;73.51
47861;HTU21D;33620;52.340;5.984;2022-08-19T14:20:24;24.01;74.45
47861;HTU21D;33620;52.340;5.984;2022-08-19T14:22:50;23.98;74.71
47861;HTU21D;33620;52.340;5.984;2022-08-19T14:25:19;23.95;74.77
47861;HTU21D;33620;52.340;5.984;2022-08-19T14:27:45;23.94;75.08
47861;HTU21D;33620;52.340;5.984;2022-08-19T14:30:15;23.95;74.64
47861;HTU21D;33620;52.340;5.984;2022-08-19T14:32:41;23.96;74.63
47861;HTU21D;33620;52.340;5.984;2022-08-19T14:35:09;23.99;74.50
47861;HTU21D;33620;52.340;5.984;2022-08-19T14:37:34;24.03;74.35
47861;HTU21D;33620;52.340;5.984;2022-08-19T14:40:01;24.01;74.13
47861;HTU21D;33620;52.340;5.984;2022-08-19T14:42:26;24.06;73.92
47861;HTU21D;33620;52.340;5.984;2022-08-19T14:44:51;24.09;73.55
47861;HTU21D;33620;52.340;5.984;2022-08-19T14:47:17;24.08;73.03
47861;HTU21D;33620;52.340;5.984;2022-08-19T14:49:42;24.00;73.01
47861;HTU21D;33620;52.340;5.984;2022-08-19T14:52:07;23.96;73.40
47861;HTU21D;33620;52.340;5.984;2022-08-19T14:54:33;23.98;72.53
47861;HTU21D;33620;52.340;5.984;2022-08-19T14:56:58;23.95;72.45
47861;HTU21D;33620;52.340;5.984;2022-08-19T14:59:25;23.92;72.79
47861;HTU21D;33620;52.340;5.984;2022-08-19T15:01:50;23.88;73.40
47861;HTU21D;33620;52.340;5.984;2022-08-19T15:04:15;23.85;74.07
47861;HTU21D;33620;52.340;5.984;2022-08-19T15:06:41;23.89;74.11
47861;HTU21D;33620;52.340;5.984;2022-08-19T15:09:08;23.88;74.54
47861;HTU21D;33620;52.340;5.984;2022-08-19T15:11:33;23.85;74.04
47861;HTU21D;33620;52.340;5.984;2022-08-19T15:13:59;23.75;74.15
47861;HTU21D;33620;52.340;5.984;2022-08-19T15:16:25;23.74;74.55
47861;HTU21D;33620;52.340;5.984;2022-08-19T15:18:53;23.70;74.54
47861;HTU21D;33620;52.340;5.984;2022-08-19T15:21:20;23.68;74.11
47861;HTU21D;33620;52.340;5.984;2022-08-19T15:23:46;23.69;73.32
47861;HTU21D;33620;52.340;5.984;2022-08-19T15:26:13;23.72;73.40
47861;HTU21D;33620;52.340;5.984;2022-08-19T15:28:38;23.71;73.16